Time;durP1;ratioP1;P1;durP2;ratioP2;P2;SDS_P1;SDS_P2;PMS_P1;PMS_P2;Temp;Humidity;BMP_temperature;BMP_pressure;BME280_temperature;BME280_humidity;BME280_pressure;Samples;Min_cycle;Max_cycle;Signal;HPM_P1;HPM_P2
2021/03/24 00:01:28;;;;;;;49.87;31.93;;;;;;;;;;5062947;28;20660;-45
2021/03/24 00:03:53;;;;;;;51.47;33.27;;;;;;;;;;5066228;28;20272;-45
2021/03/24 00:06:19;;;;;;;52.27;32.23;;;;;;;;;;5068018;28;20798;-45
2021/03/24 00:08:45;;;;;;;48.87;32.90;;;;;;;;;;5064879;28;20198;-46
2021/03/24 00:11:12;;;;;;;53.57;32.47;;;;;;;;;;5070205;28;20192;-47
2021/03/24 00:13:38;;;;;;;47.23;32.20;;;;;;;;;;5064630;28;20200;-45
2021/03/24 00:16:04;;;;;;;51.90;34.10;;;;;;;;;;5061825;28;20220;-46
2021/03/24 00:18:31;;;;;;;47.20;32.60;;;;;;;;;;5066245;28;20190;-46
2021/03/24 00:20:56;;;;;;;44.90;31.23;;;;;;;;;;5068212;28;20212;-45
2021/03/24 00:23:22;;;;;;;42.27;29.70;;;;;;;;;;5064455;28;20205;-45
2021/03/24 00:25:48;;;;;;;49.50;32.90;;;;;;;;;;5065466;28;20209;-45
2021/03/24 00:28:14;;;;;;;45.57;30.20;;;;;;;;;;5065356;28;20563;-46
2021/03/24 00:30:43;;;;;;;46.17;31.10;;;;;;;;;;5069253;28;20185;-45
2021/03/24 00:33:17;;;;;;;48.23;30.83;;;;;;;;;;5068833;28;20194;-45
2021/03/24 00:35:42;;;;;;;45.47;31.20;;;;;;;;;;5065183;28;20201;-45
2021/03/24 00:38:09;;;;;;;43.53;30.70;;;;;;;;;;5064147;28;20185;-45
2021/03/24 00:40:43;;;;;;;46.77;32.37;;;;;;;;;;5069013;28;20198;-46
2021/03/24 00:43:09;;;;;;;49.50;32.77;;;;;;;;;;5068964;28;20247;-45
2021/03/24 00:45:35;;;;;;;48.10;34.30;;;;;;;;;;5064288;28;20205;-45
2021/03/24 00:48:02;;;;;;;49.13;33.10;;;;;;;;;;5059860;28;20211;-45
2021/03/24 00:50:29;;;;;;;45.40;32.57;;;;;;;;;;5064972;28;20215;-45
2021/03/24 00:52:55;;;;;;;46.03;31.57;;;;;;;;;;5070058;28;20194;-45
2021/03/24 00:55:21;;;;;;;47.00;32.57;;;;;;;;;;5060954;28;20274;-45
2021/03/24 00:57:46;;;;;;;47.00;32.73;;;;;;;;;;5060496;28;20675;-46
2021/03/24 01:00:34;;;;;;;42.87;29.53;;;;;;;;;;5057215;28;20224;-45
2021/03/24 01:02:59;;;;;;;42.23;30.37;;;;;;;;;;5067441;28;20219;-45
2021/03/24 01:05:25;;;;;;;43.40;30.43;;;;;;;;;;5063491;28;20669;-44
2021/03/24 01:07:51;;;;;;;36.97;28.97;;;;;;;;;;5063988;28;20181;-45
2021/03/24 01:10:21;;;;;;;38.07;27.70;;;;;;;;;;5055867;28;20190;-46
2021/03/24 01:12:46;;;;;;;37.93;27.73;;;;;;;;;;5067754;28;20185;-46
2021/03/24 01:15:12;;;;;;;42.37;28.60;;;;;;;;;;5064468;28;20208;-45
2021/03/24 01:17:38;;;;;;;43.17;29.93;;;;;;;;;;5065078;28;20596;-45
2021/03/24 01:20:04;;;;;;;43.20;32.00;;;;;;;;;;5058393;28;20288;-45
2021/03/24 01:22:30;;;;;;;39.37;29.60;;;;;;;;;;5067630;28;20247;-45
2021/03/24 01:24:55;;;;;;;44.87;32.40;;;;;;;;;;5065431;28;20221;-45
2021/03/24 01:27:20;;;;;;;44.97;31.03;;;;;;;;;;5062614;28;20199;-44
2021/03/24 01:29:46;;;;;;;44.90;31.93;;;;;;;;;;5045450;28;20188;-45
2021/03/24 01:32:11;;;;;;;43.13;30.47;;;;;;;;;;5068086;28;20197;-46
2021/03/24 01:34:36;;;;;;;55.93;36.40;;;;;;;;;;5066993;28;20580;-45
2021/03/24 01:37:02;;;;;;;51.87;37.07;;;;;;;;;;5063657;28;20189;-45
2021/03/24 01:39:27;;;;;;;56.77;37.17;;;;;;;;;;5067053;28;20271;-46
2021/03/24 01:41:53;;;;;;;59.50;36.60;;;;;;;;;;5068054;28;20194;-45
2021/03/24 01:44:18;;;;;;;59.80;39.13;;;;;;;;;;5066957;28;20572;-45
2021/03/24 01:46:47;;;;;;;55.30;37.40;;;;;;;;;;5066299;28;20245;-45
2021/03/24 01:49:18;;;;;;;55.27;36.20;;;;;;;;;;5064192;28;20221;-45
2021/03/24 01:51:49;;;;;;;59.60;37.93;;;;;;;;;;5065584;28;20566;-45
2021/03/24 01:54:23;;;;;;;58.17;37.67;;;;;;;;;;5068445;28;20703;-45
2021/03/24 01:56:56;;;;;;;56.70;38.47;;;;;;;;;;5066276;28;20189;-45
2021/03/24 01:59:21;;;;;;;56.57;37.67;;;;;;;;;;5057618;28;20196;-45
2021/03/24 02:01:47;;;;;;;55.43;37.27;;;;;;;;;;5064609;28;20577;-45
2021/03/24 02:04:12;;;;;;;49.73;34.27;;;;;;;;;;5068358;28;20234;-45
2021/03/24 02:07:02;;;;;;;51.10;33.43;;;;;;;;;;5062943;28;20216;-45
2021/03/24 02:09:35;;;;;;;54.10;33.03;;;;;;;;;;5068165;28;20220;-45
2021/03/24 02:12:12;;;;;;;49.37;34.20;;;;;;;;;;5063278;28;20221;-47
2021/03/24 02:14:49;;;;;;;50.77;34.97;;;;;;;;;;5064260;28;20194;-45
2021/03/24 02:17:17;;;;;;;52.23;34.53;;;;;;;;;;5062303;28;20852;-46
2021/03/24 02:19:57;;;;;;;51.43;35.57;;;;;;;;;;5066388;28;20232;-45
2021/03/24 02:22:25;;;;;;;52.43;35.07;;;;;;;;;;5068083;28;20221;-44
2021/03/24 02:25:00;;;;;;;49.70;35.60;;;;;;;;;;5057037;28;20282;-46
2021/03/24 02:27:29;;;;;;;55.20;35.97;;;;;;;;;;5064461;28;20280;-46
2021/03/24 02:30:04;;;;;;;50.83;34.77;;;;;;;;;;5073566;28;20279;-45
2021/03/24 02:32:32;;;;;;;46.03;33.17;;;;;;;;;;5060839;28;20653;-46
2021/03/24 02:35:06;;;;;;;46.33;31.93;;;;;;;;;;5063143;28;20215;-47
2021/03/24 02:37:34;;;;;;;47.30;31.17;;;;;;;;;;5056001;28;20185;-46
2021/03/24 02:40:02;;;;;;;53.63;35.13;;;;;;;;;;5066917;28;20632;-45
2021/03/24 02:42:28;;;;;;;48.37;32.30;;;;;;;;;;5063950;28;20687;-46
2021/03/24 02:44:53;;;;;;;46.73;33.37;;;;;;;;;;5065954;28;20213;-48
2021/03/24 02:47:19;;;;;;;46.97;32.73;;;;;;;;;;5065994;28;20217;-45
2021/03/24 02:49:44;;;;;;;48.77;33.70;;;;;;;;;;5065220;28;20177;-46
2021/03/24 02:52:11;;;;;;;49.03;32.80;;;;;;;;;;5059957;28;20189;-46
2021/03/24 02:54:39;;;;;;;49.60;33.13;;;;;;;;;;5061561;28;20189;-46
2021/03/24 02:57:04;;;;;;;47.70;33.57;;;;;;;;;;5065535;28;20205;-45
2021/03/24 02:59:30;;;;;;;49.03;32.77;;;;;;;;;;5065405;28;20708;-46
2021/03/24 03:02:14;;;;;;;50.37;34.13;;;;;;;;;;5072558;28;20277;-45
2021/03/24 03:04:57;;;;;;;50.43;32.57;;;;;;;;;;5063418;28;20216;-46
2021/03/24 03:07:31;;;;;;;51.37;33.67;;;;;;;;;;5058164;28;20673;-45
2021/03/24 03:10:10;;;;;;;58.03;34.23;;;;;;;;;;5063155;28;20261;-46
2021/03/24 03:12:58;;;;;;;59.77;36.40;;;;;;;;;;5058717;28;20292;-44
2021/03/24 03:15:59;;;;;;;54.33;33.73;;;;;;;;;;5066950;28;20308;-44
2021/03/24 03:18:28;;;;;;;57.60;36.23;;;;;;;;;;5067802;28;20185;-47
2021/03/24 03:20:59;;;;;;;56.73;35.30;;;;;;;;;;5064948;28;20219;-45
2021/03/24 03:23:27;;;;;;;60.30;37.47;;;;;;;;;;5057691;28;20208;-45
2021/03/24 03:25:59;;;;;;;56.10;35.57;;;;;;;;;;5064301;28;20585;-45
2021/03/24 03:28:27;;;;;;;56.77;35.93;;;;;;;;;;5066408;28;20732;-45
2021/03/24 03:30:55;;;;;;;53.17;35.80;;;;;;;;;;5066752;28;20185;-45
2021/03/24 03:33:24;;;;;;;60.70;36.43;;;;;;;;;;5065397;28;20238;-45
2021/03/24 03:35:52;;;;;;;55.80;36.77;;;;;;;;;;5064858;28;20712;-45
2021/03/24 03:38:20;;;;;;;56.60;35.57;;;;;;;;;;5066052;28;20218;-46
2021/03/24 03:40:46;;;;;;;55.63;36.87;;;;;;;;;;5070138;28;20773;-45
2021/03/24 03:43:15;;;;;;;56.43;35.20;;;;;;;;;;5065938;28;20192;-45
2021/03/24 03:45:43;;;;;;;60.47;38.07;;;;;;;;;;5067032;28;20209;-44
2021/03/24 03:48:11;;;;;;;59.13;36.50;;;;;;;;;;5068672;28;20188;-45
2021/03/24 03:50:36;;;;;;;55.03;34.60;;;;;;;;;;5069626;28;20185;-45
2021/03/24 03:53:08;;;;;;;54.87;33.07;;;;;;;;;;5065787;28;20579;-47
2021/03/24 03:55:59;;;;;;;62.30;36.17;;;;;;;;;;5066434;28;20294;-45
2021/03/24 03:58:30;;;;;;;59.37;37.00;;;;;;;;;;5068428;28;20192;-45
2021/03/24 04:01:19;;;;;;;56.43;35.80;;;;;;;;;;5068636;28;20201;-46
2021/03/24 04:03:55;;;;;;;57.47;35.90;;;;;;;;;;5068701;28;20280;-45
2021/03/24 04:06:38;;;;;;;57.97;32.87;;;;;;;;;;5068850;28;20213;-45
2021/03/24 04:09:05;;;;;;;58.10;35.93;;;;;;;;;;5067613;28;20669;-45
2021/03/24 04:11:35;;;;;;;52.47;34.70;;;;;;;;;;5063474;28;20181;-46
2021/03/24 04:14:02;;;;;;;57.63;35.87;;;;;;;;;;5062817;28;20280;-45
2021/03/24 04:16:28;;;;;;;57.20;35.60;;;;;;;;;;5070985;28;20217;-44
2021/03/24 04:19:04;;;;;;;55.53;35.27;;;;;;;;;;5066867;28;20207;-46
2021/03/24 04:21:32;;;;;;;55.43;33.47;;;;;;;;;;5067116;28;20584;-46
2021/03/24 04:24:01;;;;;;;55.13;35.20;;;;;;;;;;5062770;28;20217;-46
2021/03/24 04:26:32;;;;;;;53.43;33.40;;;;;;;;;;5078416;28;20201;-46
2021/03/24 04:29:04;;;;;;;57.20;35.30;;;;;;;;;;5066121;28;20197;-45
2021/03/24 04:31:31;;;;;;;54.50;33.50;;;;;;;;;;5068211;28;20561;-47
2021/03/24 04:33:57;;;;;;;54.70;34.20;;;;;;;;;;5065725;28;20186;-45
2021/03/24 04:36:45;;;;;;;54.77;33.53;;;;;;;;;;5065383;28;20203;-45
2021/03/24 04:39:37;;;;;;;55.43;34.60;;;;;;;;;;5070079;28;20382;-45
2021/03/24 04:42:09;;;;;;;52.20;29.80;;;;;;;;;;5061699;28;20205;-45
2021/03/24 04:44:37;;;;;;;54.33;34.03;;;;;;;;;;5067359;28;20201;-46
2021/03/24 04:47:13;;;;;;;52.17;32.27;;;;;;;;;;5066236;28;20189;-45
2021/03/24 04:49:46;;;;;;;56.47;35.17;;;;;;;;;;5059257;28;20653;-45
2021/03/24 04:52:14;;;;;;;54.87;32.80;;;;;;;;;;5073986;28;20189;-45
2021/03/24 04:54:44;;;;;;;55.47;33.53;;;;;;;;;;5066933;28;20228;-45
2021/03/24 04:57:15;;;;;;;55.33;33.87;;;;;;;;;;5069307;28;20197;-46
2021/03/24 04:59:45;;;;;;;51.60;31.53;;;;;;;;;;5063064;28;20209;-45
2021/03/24 05:02:15;;;;;;;53.03;33.20;;;;;;;;;;5069334;28;20190;-47
2021/03/24 05:04:40;;;;;;;48.23;31.93;;;;;;;;;;5065575;28;20209;-45
2021/03/24 05:07:20;;;;;;;53.13;30.80;;;;;;;;;;5067388;28;20193;-46
2021/03/24 05:09:46;;;;;;;51.87;32.90;;;;;;;;;;5067719;28;20201;-45
2021/03/24 05:12:19;;;;;;;51.03;33.17;;;;;;;;;;5067268;28;20280;-44
2021/03/24 05:14:54;;;;;;;52.83;31.13;;;;;;;;;;5070083;28;20708;-45
2021/03/24 05:17:29;;;;;;;57.07;33.33;;;;;;;;;;5063118;28;20212;-45
2021/03/24 05:20:02;;;;;;;48.97;31.67;;;;;;;;;;5060136;28;20303;-45
2021/03/24 05:22:38;;;;;;;52.53;33.47;;;;;;;;;;5065863;28;20225;-44
2021/03/24 05:25:13;;;;;;;45.17;28.63;;;;;;;;;;5068456;28;20607;-45
2021/03/24 05:27:44;;;;;;;47.43;31.00;;;;;;;;;;5066786;28;20189;-45
2021/03/24 05:30:20;;;;;;;46.80;29.50;;;;;;;;;;5062242;28;20240;-45
2021/03/24 05:32:49;;;;;;;44.30;27.17;;;;;;;;;;5059057;28;20669;-44
2021/03/24 05:35:37;;;;;;;52.13;31.83;;;;;;;;;;5065238;28;20642;-45
2021/03/24 05:38:07;;;;;;;47.33;31.13;;;;;;;;;;5061387;28;20181;-47
2021/03/24 05:40:42;;;;;;;46.77;27.10;;;;;;;;;;5065965;28;20884;-44
2021/03/24 05:43:36;;;;;;;56.90;33.03;;;;;;;;;;5066096;28;20197;-45
2021/03/24 05:46:24;;;;;;;51.23;30.20;;;;;;;;;;5063946;28;21259;-45
2021/03/24 05:48:56;;;;;;;32.03;20.63;;;;;;;;;;5065727;28;20238;-44
2021/03/24 05:51:59;;;;;;;41.97;26.23;;;;;;;;;;5067114;28;20207;-45
2021/03/24 05:54:43;;;;;;;37.70;20.53;;;;;;;;;;4966279;28;20204;-44
2021/03/24 05:57:19;;;;;;;38.23;22.27;;;;;;;;;;4959715;28;20631;-46
2021/03/24 06:00:10;;;;;;;48.43;28.87;;;;;;;;;;5029856;28;20248;-45
2021/03/24 06:03:23;;;;;;;35.80;21.97;;;;;;;;;;5063926;28;20196;-47
2021/03/24 06:06:15;;;;;;;43.47;25.63;;;;;;;;;;5043535;28;20221;-44
2021/03/24 06:09:19;;;;;;;40.80;26.00;;;;;;;;;;5062313;28;20195;-46
2021/03/24 06:12:11;;;;;;;53.17;30.40;;;;;;;;;;5061927;28;20199;-45
2021/03/24 06:14:56;;;;;;;50.83;30.47;;;;;;;;;;5065220;28;20742;-44
2021/03/24 06:17:42;;;;;;;51.27;31.43;;;;;;;;;;5061010;28;20251;-45
2021/03/24 06:20:19;;;;;;;47.67;28.90;;;;;;;;;;5064281;28;20320;-45
2021/03/24 06:22:52;;;;;;;49.23;28.77;;;;;;;;;;5068703;28;20211;-45
2021/03/24 06:25:30;;;;;;;54.50;29.60;;;;;;;;;;5065378;28;20225;-45
2021/03/24 06:28:32;;;;;;;51.87;31.87;;;;;;;;;;5072462;28;20193;-44
2021/03/24 06:31:33;;;;;;;49.07;26.87;;;;;;;;;;5061342;28;20661;-45
2021/03/24 06:34:18;;;;;;;53.90;33.00;;;;;;;;;;5050324;28;20292;-46
2021/03/24 06:37:02;;;;;;;50.20;27.53;;;;;;;;;;5062610;28;20288;-45
2021/03/24 06:39:55;;;;;;;46.60;28.30;;;;;;;;;;5060779;28;20250;-45
2021/03/24 06:42:58;;;;;;;49.73;29.00;;;;;;;;;;5067311;28;20196;-46
2021/03/24 06:45:52;;;;;;;53.70;30.67;;;;;;;;;;5066548;28;20221;-45
2021/03/24 06:48:29;;;;;;;52.83;31.17;;;;;;;;;;5068139;28;20250;-45
2021/03/24 06:50:57;;;;;;;51.00;32.63;;;;;;;;;;5055615;28;20193;-45
2021/03/24 06:53:41;;;;;;;48.30;29.73;;;;;;;;;;5067063;28;20193;-45
2021/03/24 06:56:14;;;;;;;43.67;26.53;;;;;;;;;;5060856;28;20218;-45
2021/03/24 06:59:17;;;;;;;50.30;28.00;;;;;;;;;;5065611;28;20212;-45
2021/03/24 07:01:49;;;;;;;45.00;24.70;;;;;;;;;;5064966;28;20204;-45
2021/03/24 07:04:36;;;;;;;49.17;27.20;;;;;;;;;;5063561;28;20200;-45
2021/03/24 07:07:39;;;;;;;48.67;28.50;;;;;;;;;;5066123;28;20193;-45
2021/03/24 07:10:10;;;;;;;48.93;28.93;;;;;;;;;;5065654;28;20192;-44
2021/03/24 07:12:41;;;;;;;53.30;30.87;;;;;;;;;;5069703;28;20200;-46
2021/03/24 07:15:12;;;;;;;55.17;31.13;;;;;;;;;;5063823;28;21439;-45
2021/03/24 07:17:40;;;;;;;53.70;31.07;;;;;;;;;;5065328;28;20227;-46
2021/03/24 07:20:19;;;;;;;52.37;32.13;;;;;;;;;;5058920;28;20220;-46
2021/03/24 07:22:59;;;;;;;55.87;32.30;;;;;;;;;;5060855;28;20213;-45
2021/03/24 07:25:44;;;;;;;49.03;32.20;;;;;;;;;;5063948;28;20625;-46
2021/03/24 07:28:13;;;;;;;53.20;32.37;;;;;;;;;;5063394;28;20201;-45
2021/03/24 07:30:44;;;;;;;48.30;31.20;;;;;;;;;;5066113;28;20189;-46
2021/03/24 07:33:16;;;;;;;50.17;32.33;;;;;;;;;;5063910;28;20515;-45
2021/03/24 07:35:54;;;;;;;51.27;32.37;;;;;;;;;;5064367;28;20638;-44
2021/03/24 07:38:48;;;;;;;49.63;30.30;;;;;;;;;;5063215;28;20185;-45
2021/03/24 07:41:45;;;;;;;50.30;32.73;;;;;;;;;;5057592;28;20240;-45
2021/03/24 07:44:23;;;;;;;52.27;33.37;;;;;;;;;;5061720;28;20197;-44
2021/03/24 07:47:21;;;;;;;46.60;31.03;;;;;;;;;;5044242;28;20205;-44
2021/03/24 07:49:59;;;;;;;50.77;30.00;;;;;;;;;;5066302;28;20715;-45
2021/03/24 07:52:59;;;;;;;45.03;28.83;;;;;;;;;;5059788;28;20259;-46
2021/03/24 07:55:40;;;;;;;49.77;29.00;;;;;;;;;;5056705;28;20572;-44
2021/03/24 07:58:29;;;;;;;51.00;30.27;;;;;;;;;;5060135;28;20198;-45
2021/03/24 08:01:06;;;;;;;47.37;29.03;;;;;;;;;;5052814;28;20209;-45
2021/03/24 08:03:44;;;;;;;41.93;25.33;;;;;;;;;;5059882;28;20216;-45
2021/03/24 08:06:47;;;;;;;42.73;27.13;;;;;;;;;;5062222;28;20758;-48
2021/03/24 08:09:18;;;;;;;45.57;27.87;;;;;;;;;;5061525;28;20697;-45
2021/03/24 08:12:20;;;;;;;46.53;25.90;;;;;;;;;;5063004;28;20189;-48
2021/03/24 08:16:31;;;;;;;46.53;28.53;;;;;;;;;;5095114;27;20559;-45
2021/03/24 08:19:24;;;;;;;49.27;29.00;;;;;;;;;;5084436;28;20595;-42
2021/03/24 08:22:27;;;;;;;48.60;28.77;;;;;;;;;;5077847;28;20219;-46
2021/03/24 08:25:03;;;;;;;37.30;21.23;;;;;;;;;;5082903;28;20199;-44
2021/03/24 08:27:36;;;;;;;54.43;28.90;;;;;;;;;;5081378;28;20184;-44
2021/03/24 08:30:04;;;;;;;41.57;23.87;;;;;;;;;;5082933;28;20196;-44
2021/03/24 08:33:19;;;;;;;50.33;28.70;;;;;;;;;;5082988;28;20238;-42
2021/03/24 08:36:00;;;;;;;41.27;27.77;;;;;;;;;;5068998;28;20314;-45
2021/03/24 08:38:43;;;;;;;40.97;26.50;;;;;;;;;;5083526;28;20741;-44
2021/03/24 08:41:36;;;;;;;46.47;28.53;;;;;;;;;;5082983;28;20268;-43
2021/03/24 08:44:07;;;;;;;41.77;27.07;;;;;;;;;;5081397;28;20672;-44
2021/03/24 08:46:36;;;;;;;46.27;27.37;;;;;;;;;;5087102;28;20301;-41
2021/03/24 08:49:08;;;;;;;41.93;29.23;;;;;;;;;;5082990;28;20618;-44
2021/03/24 08:52:05;;;;;;;43.37;28.27;;;;;;;;;;5083334;28;20224;-42
2021/03/24 08:54:51;;;;;;;36.43;22.23;;;;;;;;;;5084296;28;20255;-43
2021/03/24 08:57:31;;;;;;;44.03;27.93;;;;;;;;;;5080921;28;20220;-44
2021/03/24 09:00:21;;;;;;;45.43;26.27;;;;;;;;;;5082494;28;20242;-44
2021/03/24 09:03:10;;;;;;;45.57;29.73;;;;;;;;;;5080769;28;20192;-44
2021/03/24 09:05:41;;;;;;;46.20;27.70;;;;;;;;;;5080511;28;20774;-43
2021/03/24 09:08:28;;;;;;;45.73;29.57;;;;;;;;;;5082720;28;20554;-44
2021/03/24 09:11:21;;;;;;;43.07;28.63;;;;;;;;;;5082128;28;20192;-42
2021/03/24 09:14:15;;;;;;;40.50;26.17;;;;;;;;;;5082775;28;20189;-42
2021/03/24 09:16:53;;;;;;;44.00;26.63;;;;;;;;;;5070233;28;20201;-43
2021/03/24 09:19:27;;;;;;;40.67;27.80;;;;;;;;;;5081839;28;20575;-45
2021/03/24 09:22:17;;;;;;;40.33;27.37;;;;;;;;;;5082030;28;20214;-42
2021/03/24 09:24:53;;;;;;;42.20;24.67;;;;;;;;;;5082345;28;20211;-44
2021/03/24 09:27:37;;;;;;;40.63;26.30;;;;;;;;;;5071774;28;20203;-44
2021/03/24 09:30:28;;;;;;;43.50;27.27;;;;;;;;;;5062826;28;20187;-44
2021/03/24 09:33:17;;;;;;;40.07;26.03;;;;;;;;;;5069064;28;20260;-44
2021/03/24 09:36:05;;;;;;;39.60;25.93;;;;;;;;;;5069008;28;20205;-44
2021/03/24 09:38:35;;;;;;;42.87;27.97;;;;;;;;;;5067598;28;20198;-44
2021/03/24 09:41:18;;;;;;;46.00;27.87;;;;;;;;;;5068165;28;20268;-45
2021/03/24 09:43:54;;;;;;;37.67;23.00;;;;;;;;;;5068265;28;20200;-42
2021/03/24 09:46:36;;;;;;;45.40;26.80;;;;;;;;;;5070002;28;20197;-43
2021/03/24 09:49:11;;;;;;;39.00;23.40;;;;;;;;;;5066848;28;20198;-43
2021/03/24 09:51:44;;;;;;;40.90;28.60;;;;;;;;;;5067578;28;20215;-46
2021/03/24 09:54:25;;;;;;;43.70;26.40;;;;;;;;;;5068139;28;20185;-42
2021/03/24 09:57:02;;;;;;;42.23;26.93;;;;;;;;;;5067026;28;20274;-43
2021/03/24 09:59:41;;;;;;;45.43;29.83;;;;;;;;;;5068925;28;20184;-44
2021/03/24 10:02:32;;;;;;;40.60;26.50;;;;;;;;;;5070160;28;20189;-43
2021/03/24 10:05:13;;;;;;;39.40;28.13;;;;;;;;;;5064229;28;20201;-46
2021/03/24 10:07:56;;;;;;;39.57;27.67;;;;;;;;;;5079129;28;20181;-45
2021/03/24 10:10:30;;;;;;;36.83;21.73;;;;;;;;;;5066280;28;20184;-44
2021/03/24 10:13:03;;;;;;;43.40;29.63;;;;;;;;;;5068056;28;20185;-43
2021/03/24 10:15:37;;;;;;;43.73;30.17;;;;;;;;;;5066166;28;20237;-44
2021/03/24 10:18:12;;;;;;;50.17;29.47;;;;;;;;;;5068088;28;20592;-45
2021/03/24 10:20:43;;;;;;;32.73;18.87;;;;;;;;;;5065486;28;20267;-46
2021/03/24 10:23:16;;;;;;;44.17;29.63;;;;;;;;;;5064770;28;20260;-45
2021/03/24 10:25:48;;;;;;;40.00;28.53;;;;;;;;;;5068598;28;20258;-43
2021/03/24 10:28:20;;;;;;;42.93;26.00;;;;;;;;;;5065464;28;20189;-42
2021/03/24 10:31:02;;;;;;;38.83;28.27;;;;;;;;;;5067572;28;20224;-44
2021/03/24 10:33:37;;;;;;;41.00;27.57;;;;;;;;;;5059960;28;20190;-45
2021/03/24 10:36:15;;;;;;;43.83;25.33;;;;;;;;;;5063527;28;20213;-44
2021/03/24 10:38:47;;;;;;;39.30;25.67;;;;;;;;;;5064265;28;20709;-44
2021/03/24 10:41:40;;;;;;;40.40;28.63;;;;;;;;;;5067922;28;20174;-45
2021/03/24 10:44:23;;;;;;;40.10;28.23;;;;;;;;;;5068571;28;20196;-43
2021/03/24 10:47:03;;;;;;;42.50;32.43;;;;;;;;;;5055060;28;20628;-44
2021/03/24 10:49:48;;;;;;;40.20;29.10;;;;;;;;;;5063763;28;20177;-44
2021/03/24 10:52:21;;;;;;;39.13;23.53;;;;;;;;;;5060874;28;20802;-45
2021/03/24 10:54:58;;;;;;;34.33;22.97;;;;;;;;;;5066737;28;20209;-45
2021/03/24 10:57:47;;;;;;;45.43;31.20;;;;;;;;;;5064903;28;20298;-44
2021/03/24 11:00:21;;;;;;;41.13;29.80;;;;;;;;;;5064548;28;20181;-44
2021/03/24 11:02:49;;;;;;;44.23;30.50;;;;;;;;;;5067782;28;20250;-45
2021/03/24 11:05:29;;;;;;;39.07;29.10;;;;;;;;;;5065261;28;20382;-46
2021/03/24 11:08:19;;;;;;;43.53;29.47;;;;;;;;;;5067530;28;20189;-45
2021/03/24 11:10:51;;;;;;;39.53;28.90;;;;;;;;;;5065354;28;20177;-44
2021/03/24 11:13:41;;;;;;;41.50;30.47;;;;;;;;;;5065488;28;20211;-46
2021/03/24 11:16:08;;;;;;;40.87;30.30;;;;;;;;;;5066308;28;20209;-44
2021/03/24 11:18:43;;;;;;;39.73;28.60;;;;;;;;;;5065315;28;20189;-45
2021/03/24 11:21:33;;;;;;;38.33;28.97;;;;;;;;;;5060358;28;20220;-45
2021/03/24 11:24:16;;;;;;;42.33;29.53;;;;;;;;;;5062816;28;20185;-44
2021/03/24 11:26:50;;;;;;;41.40;29.67;;;;;;;;;;5067251;28;20220;-45
2021/03/24 11:29:21;;;;;;;42.03;32.50;;;;;;;;;;5066455;28;20216;-45
2021/03/24 11:31:52;;;;;;;42.33;29.50;;;;;;;;;;5067285;28;20273;-45
2021/03/24 11:34:25;;;;;;;41.70;31.67;;;;;;;;;;5067011;28;20189;-45
2021/03/24 11:36:58;;;;;;;44.57;33.47;;;;;;;;;;5066089;28;20311;-44
2021/03/24 11:39:33;;;;;;;40.53;28.17;;;;;;;;;;5066644;28;20273;-45
2021/03/24 11:42:14;;;;;;;39.87;30.20;;;;;;;;;;5064272;28;20169;-46
2021/03/24 11:44:41;;;;;;;40.00;30.27;;;;;;;;;;5062870;28;20707;-45
2021/03/24 11:47:38;;;;;;;40.30;28.27;;;;;;;;;;5065210;28;20590;-45
2021/03/24 11:50:16;;;;;;;36.60;24.43;;;;;;;;;;5040312;28;20200;-43
2021/03/24 11:53:00;;;;;;;40.47;27.10;;;;;;;;;;5063378;28;20327;-44
2021/03/24 11:55:47;;;;;;;37.53;21.67;;;;;;;;;;5065883;28;20212;-46
2021/03/24 11:58:31;;;;;;;45.07;26.93;;;;;;;;;;5047020;28;20290;-46
2021/03/24 12:01:05;;;;;;;37.67;27.70;;;;;;;;;;5065759;28;20181;-45
2021/03/24 12:03:59;;;;;;;37.53;27.43;;;;;;;;;;5067280;28;20189;-45
2021/03/24 12:06:32;;;;;;;38.57;28.93;;;;;;;;;;5064095;28;20842;-46
2021/03/24 12:09:13;;;;;;;37.23;28.20;;;;;;;;;;5066498;28;20661;-44
2021/03/24 12:11:40;;;;;;;33.10;20.57;;;;;;;;;;5067031;28;20209;-45
2021/03/24 12:14:26;;;;;;;41.83;28.77;;;;;;;;;;5065238;28;20225;-45
2021/03/24 12:16:52;;;;;;;44.57;29.40;;;;;;;;;;5065243;28;20209;-45
2021/03/24 12:19:33;;;;;;;35.60;24.07;;;;;;;;;;5064430;28;20189;-45
2021/03/24 12:22:21;;;;;;;38.27;25.80;;;;;;;;;;5066860;28;20185;-44
2021/03/24 12:24:50;;;;;;;34.37;26.03;;;;;;;;;;5067513;28;20193;-44
2021/03/24 12:27:22;;;;;;;37.00;26.27;;;;;;;;;;5065058;28;20284;-43
2021/03/24 12:30:21;;;;;;;37.60;27.40;;;;;;;;;;5063385;28;20181;-44
2021/03/24 12:32:46;;;;;;;38.70;26.30;;;;;;;;;;5050704;28;20201;-44
2021/03/24 12:35:24;;;;;;;34.57;23.63;;;;;;;;;;5066133;28;20266;-45
2021/03/24 12:38:07;;;;;;;24.53;15.03;;;;;;;;;;5063423;28;20238;-45
2021/03/24 12:40:34;;;;;;;30.63;22.77;;;;;;;;;;5065106;28;20200;-44
2021/03/24 12:43:09;;;;;;;32.23;23.67;;;;;;;;;;5065887;28;20579;-45
2021/03/24 12:45:39;;;;;;;36.03;26.67;;;;;;;;;;5073520;28;20273;-44
2021/03/24 12:48:13;;;;;;;31.70;21.63;;;;;;;;;;5065968;28;20193;-44
2021/03/24 12:50:48;;;;;;;36.57;24.17;;;;;;;;;;5066337;28;20260;-45
2021/03/24 12:53:34;;;;;;;28.17;21.60;;;;;;;;;;5061539;28;20197;-44
2021/03/24 12:56:12;;;;;;;33.57;23.97;;;;;;;;;;5062647;28;20289;-44
2021/03/24 12:58:46;;;;;;;35.83;25.07;;;;;;;;;;5067500;28;20194;-44
2021/03/24 13:01:36;;;;;;;31.87;23.63;;;;;;;;;;5066896;28;20193;-45
2021/03/24 13:04:24;;;;;;;32.87;24.30;;;;;;;;;;5062737;28;20318;-46
2021/03/24 13:07:03;;;;;;;37.60;25.37;;;;;;;;;;5069478;28;20326;-45
2021/03/24 13:09:45;;;;;;;36.17;20.57;;;;;;;;;;5060647;28;20240;-45
2021/03/24 13:12:20;;;;;;;29.40;22.00;;;;;;;;;;5068518;28;20185;-45
2021/03/24 13:15:03;;;;;;;35.27;24.13;;;;;;;;;;5069941;28;20213;-43
2021/03/24 13:17:40;;;;;;;29.70;20.73;;;;;;;;;;5070524;28;20196;-45
2021/03/24 13:20:06;;;;;;;28.17;19.53;;;;;;;;;;5071333;28;20200;-45
2021/03/24 13:22:43;;;;;;;31.60;22.83;;;;;;;;;;5067042;28;20661;-45
2021/03/24 13:25:18;;;;;;;32.53;24.57;;;;;;;;;;5069397;28;20209;-46
2021/03/24 13:28:04;;;;;;;36.70;25.60;;;;;;;;;;5069952;28;20192;-44
2021/03/24 13:31:10;;;;;;;30.57;21.10;;;;;;;;;;5067332;28;20219;-46
2021/03/24 13:34:14;;;;;;;34.73;25.03;;;;;;;;;;5067092;28;20607;-45
2021/03/24 13:36:54;;;;;;;33.40;24.57;;;;;;;;;;5067341;28;20607;-45
2021/03/24 13:39:25;;;;;;;33.80;24.90;;;;;;;;;;5070252;28;20181;-45
2021/03/24 13:41:59;;;;;;;34.17;24.87;;;;;;;;;;5069627;28;20524;-45
2021/03/24 13:44:41;;;;;;;33.97;21.90;;;;;;;;;;5069456;28;20188;-45
2021/03/24 13:47:13;;;;;;;31.60;24.20;;;;;;;;;;5070043;28;20659;-46
2021/03/24 13:49:44;;;;;;;36.87;22.60;;;;;;;;;;5070469;28;20192;-45
2021/03/24 13:52:39;;;;;;;31.37;22.13;;;;;;;;;;5068170;28;20297;-44
2021/03/24 13:55:28;;;;;;;30.47;21.63;;;;;;;;;;5065283;28;20247;-45
2021/03/24 13:58:05;;;;;;;32.13;22.80;;;;;;;;;;5066859;28;20284;-45
2021/03/24 14:00:38;;;;;;;32.87;24.43;;;;;;;;;;5069246;28;20188;-45
2021/03/24 14:03:16;;;;;;;29.63;22.20;;;;;;;;;;5069009;28;20211;-44
2021/03/24 14:06:03;;;;;;;32.07;23.27;;;;;;;;;;5068934;28;20219;-45
2021/03/24 14:08:45;;;;;;;34.10;22.97;;;;;;;;;;5067287;28;20231;-45
2021/03/24 14:11:35;;;;;;;24.17;15.37;;;;;;;;;;5063977;28;20268;-45
2021/03/24 14:14:07;;;;;;;30.17;20.80;;;;;;;;;;5063260;28;20192;-45
2021/03/24 14:16:48;;;;;;;29.27;20.40;;;;;;;;;;5070293;28;20272;-46
2021/03/24 14:19:35;;;;;;;33.20;23.07;;;;;;;;;;5068871;28;20609;-45
2021/03/24 14:22:09;;;;;;;33.70;23.40;;;;;;;;;;5067557;28;20185;-44
2021/03/24 14:25:13;;;;;;;30.20;22.67;;;;;;;;;;5060624;28;20264;-46
2021/03/24 14:27:53;;;;;;;28.97;19.63;;;;;;;;;;5054582;28;20769;-44
2021/03/24 14:30:28;;;;;;;35.80;22.87;;;;;;;;;;5064720;28;20582;-44
2021/03/24 14:32:59;;;;;;;32.67;21.53;;;;;;;;;;5068620;28;20554;-45
2021/03/24 14:35:25;;;;;;;30.20;21.93;;;;;;;;;;5066641;28;20213;-44
2021/03/24 14:38:38;;;;;;;33.80;22.90;;;;;;;;;;5058415;28;20653;-46
2021/03/24 14:41:19;;;;;;;30.13;21.10;;;;;;;;;;5013013;28;20197;-44
2021/03/24 14:44:02;;;;;;;30.03;20.93;;;;;;;;;;5062889;28;20185;-44
2021/03/24 14:46:40;;;;;;;29.23;20.30;;;;;;;;;;5054726;28;20216;-44
2021/03/24 14:49:29;;;;;;;30.00;21.03;;;;;;;;;;5066234;28;20273;-44
2021/03/24 14:52:05;;;;;;;29.63;21.33;;;;;;;;;;5065857;28;20861;-45
2021/03/24 14:54:31;;;;;;;27.20;20.13;;;;;;;;;;5066677;28;20275;-45
2021/03/24 14:56:59;;;;;;;33.87;21.67;;;;;;;;;;5068040;28;20196;-44
2021/03/24 14:59:34;;;;;;;32.30;22.80;;;;;;;;;;5067497;28;20200;-45
2021/03/24 15:02:24;;;;;;;26.30;18.53;;;;;;;;;;5068759;28;20185;-44
2021/03/24 15:04:53;;;;;;;29.50;21.53;;;;;;;;;;5067076;28;20795;-44
2021/03/24 15:07:42;;;;;;;28.07;18.57;;;;;;;;;;5068177;28;20188;-45
2021/03/24 15:10:11;;;;;;;27.57;16.93;;;;;;;;;;5068605;28;20256;-45
2021/03/24 15:12:41;;;;;;;29.70;20.77;;;;;;;;;;5067057;28;20240;-45
2021/03/24 15:15:11;;;;;;;29.57;20.80;;;;;;;;;;5066446;28;20217;-46